sensor_id;sensor_type;location;lat;lon;timestamp;temperature;humidity
31575;DHT22;18182;1.328;103.810;2023-02-01T00:01:06;26.10;99.90
31575;DHT22;18182;1.328;103.810;2023-02-01T00:03:32;26.20;99.90
31575;DHT22;18182;1.328;103.810;2023-02-01T00:05:59;26.10;99.90
31575;DHT22;18182;1.328;103.810;2023-02-01T00:08:25;26.20;99.90
31575;DHT22;18182;1.328;103.810;2023-02-01T00:10:58;26.20;99.90
31575;DHT22;18182;1.328;103.810;2023-02-01T00:13:27;26.30;99.90
31575;DHT22;18182;1.328;103.810;2023-02-01T00:15:53;26.30;99.90
31575;DHT22;18182;1.328;103.810;2023-02-01T00:18:19;26.40;99.90
31575;DHT22;18182;1.328;103.810;2023-02-01T00:20:46;26.40;99.90
31575;DHT22;18182;1.328;103.810;2023-02-01T00:23:12;26.50;99.90
31575;DHT22;18182;1.328;103.810;2023-02-01T00:25:38;26.60;99.90
31575;DHT22;18182;1.328;103.810;2023-02-01T00:28:05;26.70;99.90
31575;DHT22;18182;1.328;103.810;2023-02-01T00:30:31;26.80;99.90
31575;DHT22;18182;1.328;103.810;2023-02-01T00:32:57;26.80;99.90
31575;DHT22;18182;1.328;103.810;2023-02-01T00:35:23;26.90;99.90
31575;DHT22;18182;1.328;103.810;2023-02-01T00:37:49;27.00;99.90
31575;DHT22;18182;1.328;103.810;2023-02-01T00:40:16;27.00;99.90
31575;DHT22;18182;1.328;103.810;2023-02-01T00:42:42;27.00;99.90
31575;DHT22;18182;1.328;103.810;2023-02-01T00:45:08;27.00;99.90
31575;DHT22;18182;1.328;103.810;2023-02-01T00:47:35;27.10;99.90
31575;DHT22;18182;1.328;103.810;2023-02-01T00:50:02;27.10;99.90
31575;DHT22;18182;1.328;103.810;2023-02-01T00:52:28;27.10;99.90
31575;DHT22;18182;1.328;103.810;2023-02-01T00:54:54;27.10;99.90
31575;DHT22;18182;1.328;103.810;2023-02-01T00:57:21;27.20;99.90
31575;DHT22;18182;1.328;103.810;2023-02-01T00:59:47;27.20;99.90
31575;DHT22;18182;1.328;103.810;2023-02-01T01:02:13;27.20;99.90
31575;DHT22;18182;1.328;103.810;2023-02-01T01:04:40;27.30;99.90
31575;DHT22;18182;1.328;103.810;2023-02-01T01:07:06;27.30;99.90
31575;DHT22;18182;1.328;103.810;2023-02-01T01:09:32;27.30;99.90
31575;DHT22;18182;1.328;103.810;2023-02-01T01:11:58;27.40;99.90
31575;DHT22;18182;1.328;103.810;2023-02-01T01:14:28;27.40;99.90
31575;DHT22;18182;1.328;103.810;2023-02-01T01:16:54;27.40;99.90
31575;DHT22;18182;1.328;103.810;2023-02-01T01:19:20;27.50;99.90
31575;DHT22;18182;1.328;103.810;2023-02-01T01:21:47;27.60;99.90
31575;DHT22;18182;1.328;103.810;2023-02-01T01:24:13;27.60;99.90
31575;DHT22;18182;1.328;103.810;2023-02-01T01:26:39;27.70;99.90
31575;DHT22;18182;1.328;103.810;2023-02-01T01:29:05;27.70;99.90
31575;DHT22;18182;1.328;103.810;2023-02-01T01:31:31;27.80;99.90
31575;DHT22;18182;1.328;103.810;2023-02-01T01:33:58;27.90;99.90
31575;DHT22;18182;1.328;103.810;2023-02-01T01:36:25;27.90;99.90
31575;DHT22;18182;1.328;103.810;2023-02-01T01:38:51;27.90;99.90
31575;DHT22;18182;1.328;103.810;2023-02-01T01:41:19;27.90;99.90
31575;DHT22;18182;1.328;103.810;2023-02-01T01:43:46;28.00;99.90
31575;DHT22;18182;1.328;103.810;2023-02-01T01:46:17;28.10;99.90
31575;DHT22;18182;1.328;103.810;2023-02-01T01:48:43;28.10;99.90
31575;DHT22;18182;1.328;103.810;2023-02-01T01:51:10;28.20;99.90
31575;DHT22;18182;1.328;103.810;2023-02-01T01:53:38;28.20;99.90
31575;DHT22;18182;1.328;103.810;2023-02-01T01:56:07;28.20;99.90
31575;DHT22;18182;1.328;103.810;2023-02-01T01:58:33;28.30;99.90
31575;DHT22;18182;1.328;103.810;2023-02-01T02:01:00;28.30;99.90
31575;DHT22;18182;1.328;103.810;2023-02-01T02:03:33;28.40;99.90
31575;DHT22;18182;1.328;103.810;2023-02-01T02:06:01;28.50;99.90
31575;DHT22;18182;1.328;103.810;2023-02-01T02:08:28;28.50;99.90
31575;DHT22;18182;1.328;103.810;2023-02-01T02:10:54;28.60;99.90
31575;DHT22;18182;1.328;103.810;2023-02-01T02:13:33;28.70;99.90
31575;DHT22;18182;1.328;103.810;2023-02-01T02:18:52;28.80;99.90
31575;DHT22;18182;1.328;103.810;2023-02-01T02:39:13;29.00;99.90
31575;DHT22;18182;1.328;103.810;2023-02-01T02:41:46;28.90;99.90
31575;DHT22;18182;1.328;103.810;2023-02-01T02:44:54;28.80;99.90
31575;DHT22;18182;1.328;103.810;2023-02-01T02:47:48;28.70;99.90
31575;DHT22;18182;1.328;103.810;2023-02-01T02:53:07;28.70;99.90
31575;DHT22;18182;1.328;103.810;2023-02-01T02:55:54;28.60;99.90
31575;DHT22;18182;1.328;103.810;2023-02-01T02:58:39;28.60;99.90
31575;DHT22;18182;1.328;103.810;2023-02-01T03:01:24;28.60;99.90
31575;DHT22;18182;1.328;103.810;2023-02-01T03:04:09;28.60;99.90
31575;DHT22;18182;1.328;103.810;2023-02-01T03:06:37;28.50;99.90
31575;DHT22;18182;1.328;103.810;2023-02-01T03:09:06;28.50;99.90
31575;DHT22;18182;1.328;103.810;2023-02-01T03:11:33;28.50;99.90
31575;DHT22;18182;1.328;103.810;2023-02-01T03:14:19;28.50;99.90
31575;DHT22;18182;1.328;103.810;2023-02-01T03:16:50;28.50;99.90
31575;DHT22;18182;1.328;103.810;2023-02-01T03:19:25;28.60;99.90
31575;DHT22;18182;1.328;103.810;2023-02-01T03:21:53;28.60;99.90
31575;DHT22;18182;1.328;103.810;2023-02-01T03:27:08;28.70;99.90
31575;DHT22;18182;1.328;103.810;2023-02-01T03:29:38;28.70;99.90
31575;DHT22;18182;1.328;103.810;2023-02-01T03:32:05;28.70;99.90
31575;DHT22;18182;1.328;103.810;2023-02-01T03:34:32;28.70;99.90
31575;DHT22;18182;1.328;103.810;2023-02-01T03:36:59;28.70;99.90
31575;DHT22;18182;1.328;103.810;2023-02-01T03:40:28;28.80;99.90
31575;DHT22;18182;1.328;103.810;2023-02-01T03:42:34;28.80;99.90
31575;DHT22;18182;1.328;103.810;2023-02-01T03:47:33;29.10;99.90
31575;DHT22;18182;1.328;103.810;2023-02-01T03:52:34;29.30;99.90
31575;DHT22;18182;1.328;103.810;2023-02-01T03:55:02;29.40;99.90
31575;DHT22;18182;1.328;103.810;2023-02-01T03:57:31;29.60;99.90
31575;DHT22;18182;1.328;103.810;2023-02-01T04:00:07;29.70;99.90
31575;DHT22;18182;1.328;103.810;2023-02-01T04:02:34;29.70;99.90
31575;DHT22;18182;1.328;103.810;2023-02-01T04:05:00;29.70;99.90
31575;DHT22;18182;1.328;103.810;2023-02-01T04:07:26;29.70;99.90
31575;DHT22;18182;1.328;103.810;2023-02-01T04:09:52;29.70;99.90
31575;DHT22;18182;1.328;103.810;2023-02-01T04:12:18;29.80;99.90
31575;DHT22;18182;1.328;103.810;2023-02-01T04:14:44;29.90;99.90
31575;DHT22;18182;1.328;103.810;2023-02-01T04:17:10;29.90;99.90
31575;DHT22;18182;1.328;103.810;2023-02-01T04:19:37;29.80;99.90
31575;DHT22;18182;1.328;103.810;2023-02-01T04:22:03;29.80;99.90
31575;DHT22;18182;1.328;103.810;2023-02-01T04:24:29;29.90;99.90
31575;DHT22;18182;1.328;103.810;2023-02-01T04:26:55;29.90;99.90
31575;DHT22;18182;1.328;103.810;2023-02-01T04:29:21;29.90;99.90
31575;DHT22;18182;1.328;103.810;2023-02-01T04:31:47;29.80;99.90
31575;DHT22;18182;1.328;103.810;2023-02-01T04:34:14;29.80;99.90
31575;DHT22;18182;1.328;103.810;2023-02-01T04:36:41;29.70;99.90
31575;DHT22;18182;1.328;103.810;2023-02-01T04:39:08;29.70;99.90
31575;DHT22;18182;1.328;103.810;2023-02-01T04:41:35;29.60;99.90
31575;DHT22;18182;1.328;103.810;2023-02-01T04:44:01;29.60;99.90
31575;DHT22;18182;1.328;103.810;2023-02-01T04:46:27;29.60;99.90
31575;DHT22;18182;1.328;103.810;2023-02-01T04:48:53;29.60;99.90
31575;DHT22;18182;1.328;103.810;2023-02-01T04:51:19;29.60;99.90
31575;DHT22;18182;1.328;103.810;2023-02-01T04:53:45;29.60;99.90
31575;DHT22;18182;1.328;103.810;2023-02-01T04:56:11;29.70;99.90
31575;DHT22;18182;1.328;103.810;2023-02-01T04:58:37;29.80;99.90
31575;DHT22;18182;1.328;103.810;2023-02-01T05:01:04;29.70;99.90
31575;DHT22;18182;1.328;103.810;2023-02-01T05:03:31;29.80;99.90
31575;DHT22;18182;1.328;103.810;2023-02-01T05:05:58;29.70;99.90
31575;DHT22;18182;1.328;103.810;2023-02-01T05:08:24;29.60;99.90
31575;DHT22;18182;1.328;103.810;2023-02-01T05:10:52;29.70;99.90
31575;DHT22;18182;1.328;103.810;2023-02-01T05:13:18;29.70;99.90
31575;DHT22;18182;1.328;103.810;2023-02-01T05:16:02;29.80;99.90
31575;DHT22;18182;1.328;103.810;2023-02-01T05:18:28;30.00;99.90
31575;DHT22;18182;1.328;103.810;2023-02-01T05:20:54;30.00;99.90
31575;DHT22;18182;1.328;103.810;2023-02-01T05:23:21;30.00;99.90
31575;DHT22;18182;1.328;103.810;2023-02-01T05:25:47;30.00;99.90
31575;DHT22;18182;1.328;103.810;2023-02-01T05:28:13;30.00;99.90
31575;DHT22;18182;1.328;103.810;2023-02-01T05:30:39;30.10;99.90
31575;DHT22;18182;1.328;103.810;2023-02-01T05:33:05;30.10;99.90
31575;DHT22;18182;1.328;103.810;2023-02-01T05:35:31;30.20;99.90
31575;DHT22;18182;1.328;103.810;2023-02-01T05:37:57;30.20;99.90
31575;DHT22;18182;1.328;103.810;2023-02-01T05:40:23;30.20;99.90
31575;DHT22;18182;1.328;103.810;2023-02-01T05:42:49;30.10;99.90
31575;DHT22;18182;1.328;103.810;2023-02-01T05:45:15;30.10;99.90
31575;DHT22;18182;1.328;103.810;2023-02-01T05:47:42;30.10;99.90
31575;DHT22;18182;1.328;103.810;2023-02-01T05:50:08;30.00;99.90
31575;DHT22;18182;1.328;103.810;2023-02-01T05:52:34;30.00;99.90
31575;DHT22;18182;1.328;103.810;2023-02-01T05:55:00;30.10;99.90
31575;DHT22;18182;1.328;103.810;2023-02-01T05:57:26;30.00;99.90
31575;DHT22;18182;1.328;103.810;2023-02-01T05:59:52;30.10;99.90
31575;DHT22;18182;1.328;103.810;2023-02-01T06:02:19;30.10;99.90
31575;DHT22;18182;1.328;103.810;2023-02-01T06:04:45;30.10;99.90
31575;DHT22;18182;1.328;103.810;2023-02-01T06:07:11;30.10;99.90
31575;DHT22;18182;1.328;103.810;2023-02-01T06:09:38;30.20;99.90
31575;DHT22;18182;1.328;103.810;2023-02-01T06:12:04;30.30;99.90
31575;DHT22;18182;1.328;103.810;2023-02-01T06:14:30;30.50;99.90
31575;DHT22;18182;1.328;103.810;2023-02-01T06:16:56;30.70;99.90
31575;DHT22;18182;1.328;103.810;2023-02-01T06:19:23;30.50;99.90
31575;DHT22;18182;1.328;103.810;2023-02-01T06:21:49;30.50;99.90
31575;DHT22;18182;1.328;103.810;2023-02-01T06:24:15;30.60;99.90
31575;DHT22;18182;1.328;103.810;2023-02-01T06:26:41;30.80;99.90
31575;DHT22;18182;1.328;103.810;2023-02-01T06:29:09;30.90;99.90
31575;DHT22;18182;1.328;103.810;2023-02-01T06:31:35;31.00;99.90
31575;DHT22;18182;1.328;103.810;2023-02-01T06:34:01;30.90;99.90
31575;DHT22;18182;1.328;103.810;2023-02-01T06:36:28;31.00;99.90
31575;DHT22;18182;1.328;103.810;2023-02-01T06:38:55;30.90;99.90
31575;DHT22;18182;1.328;103.810;2023-02-01T06:41:22;31.00;99.90
31575;DHT22;18182;1.328;103.810;2023-02-01T06:43:48;31.10;99.90
31575;DHT22;18182;1.328;103.810;2023-02-01T06:46:15;31.20;99.90
31575;DHT22;18182;1.328;103.810;2023-02-01T06:48:41;31.20;99.90
31575;DHT22;18182;1.328;103.810;2023-02-01T06:51:17;31.30;99.90
31575;DHT22;18182;1.328;103.810;2023-02-01T06:53:44;31.10;99.90
31575;DHT22;18182;1.328;103.810;2023-02-01T06:56:10;31.00;99.90
31575;DHT22;18182;1.328;103.810;2023-02-01T06:58:36;30.80;99.90
31575;DHT22;18182;1.328;103.810;2023-02-01T07:01:05;30.80;99.90
31575;DHT22;18182;1.328;103.810;2023-02-01T07:03:31;30.70;99.90
31575;DHT22;18182;1.328;103.810;2023-02-01T07:05:57;30.70;99.90
31575;DHT22;18182;1.328;103.810;2023-02-01T07:08:27;30.80;99.90
31575;DHT22;18182;1.328;103.810;2023-02-01T07:10:53;31.00;99.90
31575;DHT22;18182;1.328;103.810;2023-02-01T07:13:20;30.90;99.90
31575;DHT22;18182;1.328;103.810;2023-02-01T07:15:46;30.90;99.90
31575;DHT22;18182;1.328;103.810;2023-02-01T07:18:13;30.70;99.90
31575;DHT22;18182;1.328;103.810;2023-02-01T07:20:40;30.70;99.90
31575;DHT22;18182;1.328;103.810;2023-02-01T07:23:07;30.50;99.90
31575;DHT22;18182;1.328;103.810;2023-02-01T07:25:34;30.40;99.90
31575;DHT22;18182;1.328;103.810;2023-02-01T07:28:00;30.30;99.90
31575;DHT22;18182;1.328;103.810;2023-02-01T07:30:26;30.20;99.90
31575;DHT22;18182;1.328;103.810;2023-02-01T07:32:52;30.10;99.90
31575;DHT22;18182;1.328;103.810;2023-02-01T07:35:19;30.00;99.90
31575;DHT22;18182;1.328;103.810;2023-02-01T07:37:45;29.90;99.90
31575;DHT22;18182;1.328;103.810;2023-02-01T07:40:11;29.80;99.90
31575;DHT22;18182;1.328;103.810;2023-02-01T07:42:37;29.80;99.90
31575;DHT22;18182;1.328;103.810;2023-02-01T07:45:03;29.80;99.90
31575;DHT22;18182;1.328;103.810;2023-02-01T07:47:30;29.90;99.90
31575;DHT22;18182;1.328;103.810;2023-02-01T07:49:56;29.90;99.90
31575;DHT22;18182;1.328;103.810;2023-02-01T07:52:22;29.90;99.90
31575;DHT22;18182;1.328;103.810;2023-02-01T07:54:48;29.80;99.90
31575;DHT22;18182;1.328;103.810;2023-02-01T07:57:14;29.80;99.90
31575;DHT22;18182;1.328;103.810;2023-02-01T07:59:40;29.80;99.90
31575;DHT22;18182;1.328;103.810;2023-02-01T08:02:26;29.80;99.90
31575;DHT22;18182;1.328;103.810;2023-02-01T08:04:53;29.70;99.90
31575;DHT22;18182;1.328;103.810;2023-02-01T08:07:19;29.80;99.90
31575;DHT22;18182;1.328;103.810;2023-02-01T08:09:45;29.80;99.90
31575;DHT22;18182;1.328;103.810;2023-02-01T08:12:11;29.70;99.90
31575;DHT22;18182;1.328;103.810;2023-02-01T08:14:37;29.70;99.90
31575;DHT22;18182;1.328;103.810;2023-02-01T08:17:04;29.60;99.90
31575;DHT22;18182;1.328;103.810;2023-02-01T08:19:30;29.50;99.90
31575;DHT22;18182;1.328;103.810;2023-02-01T08:21:56;29.40;99.90
31575;DHT22;18182;1.328;103.810;2023-02-01T08:24:22;29.30;99.90
31575;DHT22;18182;1.328;103.810;2023-02-01T08:26:48;29.30;99.90
31575;DHT22;18182;1.328;103.810;2023-02-01T08:29:14;29.30;99.90
31575;DHT22;18182;1.328;103.810;2023-02-01T08:31:40;29.30;99.90
31575;DHT22;18182;1.328;103.810;2023-02-01T08:34:07;29.20;99.90
31575;DHT22;18182;1.328;103.810;2023-02-01T08:36:34;29.20;99.90
31575;DHT22;18182;1.328;103.810;2023-02-01T08:39:01;29.20;99.90
31575;DHT22;18182;1.328;103.810;2023-02-01T08:41:31;29.20;99.90
31575;DHT22;18182;1.328;103.810;2023-02-01T08:43:57;29.10;99.90
31575;DHT22;18182;1.328;103.810;2023-02-01T08:46:23;29.20;99.90
31575;DHT22;18182;1.328;103.810;2023-02-01T08:48:50;29.10;99.90
31575;DHT22;18182;1.328;103.810;2023-02-01T08:51:17;29.10;99.90
31575;DHT22;18182;1.328;103.810;2023-02-01T08:53:44;29.10;99.90
31575;DHT22;18182;1.328;103.810;2023-02-01T08:56:11;29.10;99.90
31575;DHT22;18182;1.328;103.810;2023-02-01T08:58:37;29.10;99.90
31575;DHT22;18182;1.328;103.810;2023-02-01T09:01:04;29.10;99.90
31575;DHT22;18182;1.328;103.810;2023-02-01T09:03:31;29.10;99.90
31575;DHT22;18182;1.328;103.810;2023-02-01T09:06:01;29.10;99.90
31575;DHT22;18182;1.328;103.810;2023-02-01T09:08:27;29.00;99.90
31575;DHT22;18182;1.328;103.810;2023-02-01T09:10:53;29.10;99.90
31575;DHT22;18182;1.328;103.810;2023-02-01T09:13:19;29.00;99.90
31575;DHT22;18182;1.328;103.810;2023-02-01T09:15:45;29.00;99.90
31575;DHT22;18182;1.328;103.810;2023-02-01T09:18:11;29.00;99.90
31575;DHT22;18182;1.328;103.810;2023-02-01T09:20:37;29.00;99.90
31575;DHT22;18182;1.328;103.810;2023-02-01T09:23:04;29.00;99.90
31575;DHT22;18182;1.328;103.810;2023-02-01T09:25:32;29.00;99.90
31575;DHT22;18182;1.328;103.810;2023-02-01T09:27:58;29.00;99.90
31575;DHT22;18182;1.328;103.810;2023-02-01T09:30:24;29.00;99.90
31575;DHT22;18182;1.328;103.810;2023-02-01T09:32:50;29.00;99.90
31575;DHT22;18182;1.328;103.810;2023-02-01T09:35:16;29.00;99.90
31575;DHT22;18182;1.328;103.810;2023-02-01T09:37:42;29.00;99.90
31575;DHT22;18182;1.328;103.810;2023-02-01T09:40:12;29.00;99.90
31575;DHT22;18182;1.328;103.810;2023-02-01T09:42:46;28.90;99.90
31575;DHT22;18182;1.328;103.810;2023-02-01T09:45:30;28.90;99.90
31575;DHT22;18182;1.328;103.810;2023-02-01T09:48:10;28.90;99.90
31575;DHT22;18182;1.328;103.810;2023-02-01T09:50:38;28.90;99.90
31575;DHT22;18182;1.328;103.810;2023-02-01T09:55:47;28.80;99.90
31575;DHT22;18182;1.328;103.810;2023-02-01T09:58:16;28.80;99.90
31575;DHT22;18182;1.328;103.810;2023-02-01T10:00:50;28.90;99.90
31575;DHT22;18182;1.328;103.810;2023-02-01T10:03:17;28.90;99.90
31575;DHT22;18182;1.328;103.810;2023-02-01T10:05:50;28.80;99.90
31575;DHT22;18182;1.328;103.810;2023-02-01T10:10:46;28.70;99.90
31575;DHT22;18182;1.328;103.810;2023-02-01T10:18:39;28.70;99.90
31575;DHT22;18182;1.328;103.810;2023-02-01T10:26:38;28.60;99.90
31575;DHT22;18182;1.328;103.810;2023-02-01T10:29:08;28.60;99.90
31575;DHT22;18182;1.328;103.810;2023-02-01T10:31:39;28.60;99.90
31575;DHT22;18182;1.328;103.810;2023-02-01T10:34:21;28.60;99.90
31575;DHT22;18182;1.328;103.810;2023-02-01T10:36:55;28.60;99.90
31575;DHT22;18182;1.328;103.810;2023-02-01T10:39:22;28.60;99.90
31575;DHT22;18182;1.328;103.810;2023-02-01T10:41:49;28.50;99.90
31575;DHT22;18182;1.328;103.810;2023-02-01T10:44:17;28.60;99.90
31575;DHT22;18182;1.328;103.810;2023-02-01T10:46:44;28.50;99.90
31575;DHT22;18182;1.328;103.810;2023-02-01T10:49:24;28.50;99.90
31575;DHT22;18182;1.328;103.810;2023-02-01T10:51:58;28.50;99.90
31575;DHT22;18182;1.328;103.810;2023-02-01T10:54:33;28.50;99.90
31575;DHT22;18182;1.328;103.810;2023-02-01T10:56:59;28.40;99.90
31575;DHT22;18182;1.328;103.810;2023-02-01T10:59:27;28.40;99.90
31575;DHT22;18182;1.328;103.810;2023-02-01T11:01:58;28.40;99.90
31575;DHT22;18182;1.328;103.810;2023-02-01T11:04:24;28.40;99.90
31575;DHT22;18182;1.328;103.810;2023-02-01T11:09:33;28.40;99.90
31575;DHT22;18182;1.328;103.810;2023-02-01T11:12:00;28.40;99.90
31575;DHT22;18182;1.328;103.810;2023-02-01T11:14:39;28.40;99.90
31575;DHT22;18182;1.328;103.810;2023-02-01T11:19:59;28.30;99.90
31575;DHT22;18182;1.328;103.810;2023-02-01T11:22:26;28.40;99.90
31575;DHT22;18182;1.328;103.810;2023-02-01T11:24:55;28.30;99.90
31575;DHT22;18182;1.328;103.810;2023-02-01T11:27:21;28.30;99.90
31575;DHT22;18182;1.328;103.810;2023-02-01T11:29:52;28.30;99.90
31575;DHT22;18182;1.328;103.810;2023-02-01T11:32:20;28.30;99.90
31575;DHT22;18182;1.328;103.810;2023-02-01T11:34:51;28.40;99.90
31575;DHT22;18182;1.328;103.810;2023-02-01T11:39:52;28.30;99.90
31575;DHT22;18182;1.328;103.810;2023-02-01T11:42:19;28.30;99.90
31575;DHT22;18182;1.328;103.810;2023-02-01T11:44:46;28.30;99.90
31575;DHT22;18182;1.328;103.810;2023-02-01T11:49:45;28.30;99.90
31575;DHT22;18182;1.328;103.810;2023-02-01T11:52:16;28.30;99.90
31575;DHT22;18182;1.328;103.810;2023-02-01T12:03:06;28.20;99.90
31575;DHT22;18182;1.328;103.810;2023-02-01T12:08:48;28.10;99.90
31575;DHT22;18182;1.328;103.810;2023-02-01T12:11:16;28.10;99.90
31575;DHT22;18182;1.328;103.810;2023-02-01T12:13:55;28.10;99.90
31575;DHT22;18182;1.328;103.810;2023-02-01T12:19:05;28.10;99.90
31575;DHT22;18182;1.328;103.810;2023-02-01T12:26:48;28.00;99.90
31575;DHT22;18182;1.328;103.810;2023-02-01T12:29:34;28.00;99.90
31575;DHT22;18182;1.328;103.810;2023-02-01T12:42:18;28.00;99.90
31575;DHT22;18182;1.328;103.810;2023-02-01T12:47:20;28.00;99.90
31575;DHT22;18182;1.328;103.810;2023-02-01T12:52:26;28.00;99.90
31575;DHT22;18182;1.328;103.810;2023-02-01T12:54:55;28.00;99.90
31575;DHT22;18182;1.328;103.810;2023-02-01T12:57:33;28.00;99.90
31575;DHT22;18182;1.328;103.810;2023-02-01T13:00:04;28.00;99.90
31575;DHT22;18182;1.328;103.810;2023-02-01T13:02:39;28.00;99.90
31575;DHT22;18182;1.328;103.810;2023-02-01T13:05:18;28.00;99.90
31575;DHT22;18182;1.328;103.810;2023-02-01T13:08:00;28.00;99.90
31575;DHT22;18182;1.328;103.810;2023-02-01T13:10:33;28.00;99.90
31575;DHT22;18182;1.328;103.810;2023-02-01T13:18:38;28.00;99.90
31575;DHT22;18182;1.328;103.810;2023-02-01T13:21:22;28.00;99.90
31575;DHT22;18182;1.328;103.810;2023-02-01T13:23:49;28.00;99.90
31575;DHT22;18182;1.328;103.810;2023-02-01T13:26:16;28.00;99.90
31575;DHT22;18182;1.328;103.810;2023-02-01T13:42:11;27.90;99.90
31575;DHT22;18182;1.328;103.810;2023-02-01T13:44:39;27.90;99.90
31575;DHT22;18182;1.328;103.810;2023-02-01T13:47:09;27.90;99.90
31575;DHT22;18182;1.328;103.810;2023-02-01T13:49:38;27.80;99.90
31575;DHT22;18182;1.328;103.810;2023-02-01T13:52:16;27.80;99.90
31575;DHT22;18182;1.328;103.810;2023-02-01T13:54:47;27.80;99.90
31575;DHT22;18182;1.328;103.810;2023-02-01T13:57:35;27.80;99.90
31575;DHT22;18182;1.328;103.810;2023-02-01T14:03:42;27.70;99.90
31575;DHT22;18182;1.328;103.810;2023-02-01T14:10:49;27.70;99.90
31575;DHT22;18182;1.328;103.810;2023-02-01T14:16:16;27.70;99.90
31575;DHT22;18182;1.328;103.810;2023-02-01T14:21:15;27.70;99.90
31575;DHT22;18182;1.328;103.810;2023-02-01T14:23:47;27.60;99.90
31575;DHT22;18182;1.328;103.810;2023-02-01T14:26:21;27.60;99.90
31575;DHT22;18182;1.328;103.810;2023-02-01T14:28:51;27.60;99.90
31575;DHT22;18182;1.328;103.810;2023-02-01T14:31:24;27.50;99.90
31575;DHT22;18182;1.328;103.810;2023-02-01T14:33:59;27.50;99.90
31575;DHT22;18182;1.328;103.810;2023-02-01T14:36:25;27.50;99.90
31575;DHT22;18182;1.328;103.810;2023-02-01T14:38:53;27.50;99.90
31575;DHT22;18182;1.328;103.810;2023-02-01T14:43:49;27.60;99.90
31575;DHT22;18182;1.328;103.810;2023-02-01T14:46:15;27.60;99.90
31575;DHT22;18182;1.328;103.810;2023-02-01T14:48:43;27.60;99.90
31575;DHT22;18182;1.328;103.810;2023-02-01T14:51:11;27.60;99.90
31575;DHT22;18182;1.328;103.810;2023-02-01T14:53:39;27.60;99.90
31575;DHT22;18182;1.328;103.810;2023-02-01T14:56:09;27.60;99.90
31575;DHT22;18182;1.328;103.810;2023-02-01T15:03:45;27.50;99.90
31575;DHT22;18182;1.328;103.810;2023-02-01T15:06:36;27.50;99.90
31575;DHT22;18182;1.328;103.810;2023-02-01T15:09:02;27.60;99.90
31575;DHT22;18182;1.328;103.810;2023-02-01T15:11:28;27.60;99.90
31575;DHT22;18182;1.328;103.810;2023-02-01T15:13:54;27.50;99.90
31575;DHT22;18182;1.328;103.810;2023-02-01T15:16:22;27.50;99.90
31575;DHT22;18182;1.328;103.810;2023-02-01T15:18:49;27.50;99.90
31575;DHT22;18182;1.328;103.810;2023-02-01T15:21:19;27.50;99.90
31575;DHT22;18182;1.328;103.810;2023-02-01T15:23:46;27.50;99.90
31575;DHT22;18182;1.328;103.810;2023-02-01T15:26:30;27.50;99.90
31575;DHT22;18182;1.328;103.810;2023-02-01T15:28:57;27.50;99.90
31575;DHT22;18182;1.328;103.810;2023-02-01T15:31:36;27.40;99.90
31575;DHT22;18182;1.328;103.810;2023-02-01T15:34:03;27.50;99.90
31575;DHT22;18182;1.328;103.810;2023-02-01T15:36:29;27.50;99.90
31575;DHT22;18182;1.328;103.810;2023-02-01T15:39:16;27.40;99.90
31575;DHT22;18182;1.328;103.810;2023-02-01T15:44:18;27.50;99.90
31575;DHT22;18182;1.328;103.810;2023-02-01T15:46:45;27.50;99.90
31575;DHT22;18182;1.328;103.810;2023-02-01T15:49:31;27.50;99.90
31575;DHT22;18182;1.328;103.810;2023-02-01T15:51:59;27.50;99.90
31575;DHT22;18182;1.328;103.810;2023-02-01T15:54:30;27.50;99.90
31575;DHT22;18182;1.328;103.810;2023-02-01T15:56:58;27.50;99.90
31575;DHT22;18182;1.328;103.810;2023-02-01T15:59:29;27.50;99.90
31575;DHT22;18182;1.328;103.810;2023-02-01T16:01:56;27.50;99.90
31575;DHT22;18182;1.328;103.810;2023-02-01T16:04:23;27.50;99.90
31575;DHT22;18182;1.328;103.810;2023-02-01T16:09:17;27.50;99.90
31575;DHT22;18182;1.328;103.810;2023-02-01T16:11:47;27.40;99.90
31575;DHT22;18182;1.328;103.810;2023-02-01T16:14:14;27.40;99.90
31575;DHT22;18182;1.328;103.810;2023-02-01T16:16:40;27.40;99.90
31575;DHT22;18182;1.328;103.810;2023-02-01T16:19:07;27.40;99.90
31575;DHT22;18182;1.328;103.810;2023-02-01T16:21:33;27.40;99.90
31575;DHT22;18182;1.328;103.810;2023-02-01T16:23:59;27.40;99.90
31575;DHT22;18182;1.328;103.810;2023-02-01T16:26:29;27.40;99.90
31575;DHT22;18182;1.328;103.810;2023-02-01T16:28:57;27.40;99.90
31575;DHT22;18182;1.328;103.810;2023-02-01T16:31:26;27.40;99.90
31575;DHT22;18182;1.328;103.810;2023-02-01T16:33:53;27.40;99.90
31575;DHT22;18182;1.328;103.810;2023-02-01T16:36:19;27.40;99.90
31575;DHT22;18182;1.328;103.810;2023-02-01T16:38:46;27.40;99.90
31575;DHT22;18182;1.328;103.810;2023-02-01T16:41:14;27.40;99.90
31575;DHT22;18182;1.328;103.810;2023-02-01T16:43:40;27.40;99.90
31575;DHT22;18182;1.328;103.810;2023-02-01T16:46:11;27.40;99.90
31575;DHT22;18182;1.328;103.810;2023-02-01T16:48:38;27.40;99.90
31575;DHT22;18182;1.328;103.810;2023-02-01T16:51:09;27.30;99.90
31575;DHT22;18182;1.328;103.810;2023-02-01T16:53:36;27.30;99.90
31575;DHT22;18182;1.328;103.810;2023-02-01T16:56:15;27.40;99.90
31575;DHT22;18182;1.328;103.810;2023-02-01T16:58:42;27.30;99.90
31575;DHT22;18182;1.328;103.810;2023-02-01T17:01:11;27.40;99.90
31575;DHT22;18182;1.328;103.810;2023-02-01T17:03:38;27.30;99.90
31575;DHT22;18182;1.328;103.810;2023-02-01T17:06:04;27.30;99.90
31575;DHT22;18182;1.328;103.810;2023-02-01T17:08:36;27.30;99.90
31575;DHT22;18182;1.328;103.810;2023-02-01T17:11:03;27.30;99.90
31575;DHT22;18182;1.328;103.810;2023-02-01T17:13:29;27.30;99.90
31575;DHT22;18182;1.328;103.810;2023-02-01T17:16:00;27.30;99.90
31575;DHT22;18182;1.328;103.810;2023-02-01T17:18:27;27.30;99.90
31575;DHT22;18182;1.328;103.810;2023-02-01T17:20:59;27.30;99.90
31575;DHT22;18182;1.328;103.810;2023-02-01T17:23:26;27.30;99.90
31575;DHT22;18182;1.328;103.810;2023-02-01T17:25:53;27.30;99.90
31575;DHT22;18182;1.328;103.810;2023-02-01T17:28:19;27.30;99.90
31575;DHT22;18182;1.328;103.810;2023-02-01T17:30:45;27.30;99.90
31575;DHT22;18182;1.328;103.810;2023-02-01T17:33:16;27.30;99.90
31575;DHT22;18182;1.328;103.810;2023-02-01T17:35:44;27.30;99.90
31575;DHT22;18182;1.328;103.810;2023-02-01T17:38:11;27.30;99.90
31575;DHT22;18182;1.328;103.810;2023-02-01T17:40:37;27.30;99.90
31575;DHT22;18182;1.328;103.810;2023-02-01T17:43:03;27.30;99.90